Burt, Illinois
Current Conditions -  °F | °C
As of 4:55 PM on Thursday 20 Nov 2014 (Local Time) from KAAA Reporting Station
Clear Clear  
Wind Chill: 31°   Ceiling: Unl
Heat Index: 31°   Visibility: 10mi
Dew Point: 11°   Wind: 0mph
Humidity: 44%   Direction: NA
Pressure: 30.22"   Gusts: NA
Location:  40.3088°N, 89.3237°W
Report Text: KAAA 202255Z AUTO 00000KT 10SM CLR M01/M11 A3022 RMK AO2 T10061114
Loading
Personal Weather Stations






























Interactive Weather Map New forecast layout! Learn more

10-Day Weather Forecast

Advertisements
Track Severe Weather on mobile